sensor_id;sensor_type;location;lat;lon;timestamp;temperature;humidity
11991;DHT22;6055;52.522;13.446;2023-03-01T00:01:41;1.50;99.90
11991;DHT22;6055;52.522;13.446;2023-03-01T00:04:06;1.50;99.90
11991;DHT22;6055;52.522;13.446;2023-03-01T00:06:32;1.50;99.90
11991;DHT22;6055;52.522;13.446;2023-03-01T00:08:58;1.50;99.90
11991;DHT22;6055;52.522;13.446;2023-03-01T00:11:26;1.50;99.90
11991;DHT22;6055;52.522;13.446;2023-03-01T00:13:54;1.50;99.90
11991;DHT22;6055;52.522;13.446;2023-03-01T00:16:26;1.50;99.90
11991;DHT22;6055;52.522;13.446;2023-03-01T00:18:53;1.50;99.90
11991;DHT22;6055;52.522;13.446;2023-03-01T00:21:20;1.40;99.90
11991;DHT22;6055;52.522;13.446;2023-03-01T00:23:46;1.40;99.90
11991;DHT22;6055;52.522;13.446;2023-03-01T00:26:15;1.40;99.90
11991;DHT22;6055;52.522;13.446;2023-03-01T00:28:42;1.40;99.90
11991;DHT22;6055;52.522;13.446;2023-03-01T00:31:14;1.40;99.90
11991;DHT22;6055;52.522;13.446;2023-03-01T00:33:40;1.30;99.90
11991;DHT22;6055;52.522;13.446;2023-03-01T00:36:06;1.30;99.90
11991;DHT22;6055;52.522;13.446;2023-03-01T00:38:40;1.30;99.90
11991;DHT22;6055;52.522;13.446;2023-03-01T00:41:08;1.30;99.90
11991;DHT22;6055;52.522;13.446;2023-03-01T00:43:34;1.30;99.90
11991;DHT22;6055;52.522;13.446;2023-03-01T00:46:03;1.30;99.90
11991;DHT22;6055;52.522;13.446;2023-03-01T00:48:28;1.30;99.90
11991;DHT22;6055;52.522;13.446;2023-03-01T00:50:54;1.20;99.90
11991;DHT22;6055;52.522;13.446;2023-03-01T00:53:19;1.20;99.90
11991;DHT22;6055;52.522;13.446;2023-03-01T00:55:45;1.20;99.90
11991;DHT22;6055;52.522;13.446;2023-03-01T00:58:10;1.20;99.90
11991;DHT22;6055;52.522;13.446;2023-03-01T01:00:36;1.20;99.90
11991;DHT22;6055;52.522;13.446;2023-03-01T01:03:03;1.20;99.90
11991;DHT22;6055;52.522;13.446;2023-03-01T01:05:33;1.20;99.90
11991;DHT22;6055;52.522;13.446;2023-03-01T01:07:59;1.20;99.90
11991;DHT22;6055;52.522;13.446;2023-03-01T01:10:24;1.20;99.90
11991;DHT22;6055;52.522;13.446;2023-03-01T01:12:50;1.20;99.90
11991;DHT22;6055;52.522;13.446;2023-03-01T01:15:15;1.20;99.90
11991;DHT22;6055;52.522;13.446;2023-03-01T01:17:41;1.10;99.90
11991;DHT22;6055;52.522;13.446;2023-03-01T01:20:08;1.10;99.90
11991;DHT22;6055;52.522;13.446;2023-03-01T01:22:33;1.10;99.90
11991;DHT22;6055;52.522;13.446;2023-03-01T01:24:59;1.10;99.90
11991;DHT22;6055;52.522;13.446;2023-03-01T01:27:24;1.10;99.90
11991;DHT22;6055;52.522;13.446;2023-03-01T01:29:52;1.10;99.90
11991;DHT22;6055;52.522;13.446;2023-03-01T01:32:17;1.10;99.90
11991;DHT22;6055;52.522;13.446;2023-03-01T01:34:43;1.00;99.90
11991;DHT22;6055;52.522;13.446;2023-03-01T01:37:08;1.10;99.90
11991;DHT22;6055;52.522;13.446;2023-03-01T01:39:34;1.00;99.90
11991;DHT22;6055;52.522;13.446;2023-03-01T01:42:01;1.00;99.90
11991;DHT22;6055;52.522;13.446;2023-03-01T01:44:28;1.00;99.90
11991;DHT22;6055;52.522;13.446;2023-03-01T01:47:01;1.00;99.90
11991;DHT22;6055;52.522;13.446;2023-03-01T01:49:43;0.90;99.90
11991;DHT22;6055;52.522;13.446;2023-03-01T01:52:16;0.90;99.90
11991;DHT22;6055;52.522;13.446;2023-03-01T01:55:00;0.90;99.90
11991;DHT22;6055;52.522;13.446;2023-03-01T01:57:40;0.80;99.90
11991;DHT22;6055;52.522;13.446;2023-03-01T02:00:16;0.80;99.90
11991;DHT22;6055;52.522;13.446;2023-03-01T02:02:43;0.80;99.90
11991;DHT22;6055;52.522;13.446;2023-03-01T02:08:02;0.70;99.90
11991;DHT22;6055;52.522;13.446;2023-03-01T02:10:29;0.70;99.90
11991;DHT22;6055;52.522;13.446;2023-03-01T02:12:57;0.70;99.90
11991;DHT22;6055;52.522;13.446;2023-03-01T02:15:23;0.60;99.90
11991;DHT22;6055;52.522;13.446;2023-03-01T02:17:49;0.60;99.90
11991;DHT22;6055;52.522;13.446;2023-03-01T02:20:44;0.60;99.90
11991;DHT22;6055;52.522;13.446;2023-03-01T02:23:12;0.60;99.90
11991;DHT22;6055;52.522;13.446;2023-03-01T02:30:48;0.50;99.90
11991;DHT22;6055;52.522;13.446;2023-03-01T02:33:35;0.60;99.90
11991;DHT22;6055;52.522;13.446;2023-03-01T02:36:07;0.50;99.90
11991;DHT22;6055;52.522;13.446;2023-03-01T02:38:33;0.60;99.90
11991;DHT22;6055;52.522;13.446;2023-03-01T02:41:00;0.60;99.90
11991;DHT22;6055;52.522;13.446;2023-03-01T02:43:30;0.60;99.90
11991;DHT22;6055;52.522;13.446;2023-03-01T02:45:59;0.60;99.90
11991;DHT22;6055;52.522;13.446;2023-03-01T02:48:49;0.50;99.90
11991;DHT22;6055;52.522;13.446;2023-03-01T02:56:38;0.50;99.90
11991;DHT22;6055;52.522;13.446;2023-03-01T02:59:04;0.50;99.90
11991;DHT22;6055;52.522;13.446;2023-03-01T03:01:30;0.50;99.90
11991;DHT22;6055;52.522;13.446;2023-03-01T03:04:05;0.50;99.90
11991;DHT22;6055;52.522;13.446;2023-03-01T03:06:31;0.50;99.90
11991;DHT22;6055;52.522;13.446;2023-03-01T03:08:56;0.50;99.90
11991;DHT22;6055;52.522;13.446;2023-03-01T03:11:21;0.60;99.90
11991;DHT22;6055;52.522;13.446;2023-03-01T03:13:47;0.60;99.90
11991;DHT22;6055;52.522;13.446;2023-03-01T03:16:13;0.60;99.90
11991;DHT22;6055;52.522;13.446;2023-03-01T03:18:39;0.50;99.90
11991;DHT22;6055;52.522;13.446;2023-03-01T03:21:08;0.60;99.90
11991;DHT22;6055;52.522;13.446;2023-03-01T03:23:35;0.60;99.90
11991;DHT22;6055;52.522;13.446;2023-03-01T03:26:01;0.60;99.90
11991;DHT22;6055;52.522;13.446;2023-03-01T03:28:29;0.60;99.90
11991;DHT22;6055;52.522;13.446;2023-03-01T03:30:56;0.60;99.90
11991;DHT22;6055;52.522;13.446;2023-03-01T03:33:21;0.60;99.90
11991;DHT22;6055;52.522;13.446;2023-03-01T03:35:49;0.60;99.90
11991;DHT22;6055;52.522;13.446;2023-03-01T03:38:17;0.60;99.90
11991;DHT22;6055;52.522;13.446;2023-03-01T03:40:49;0.50;99.90
11991;DHT22;6055;52.522;13.446;2023-03-01T03:43:24;0.50;99.90
11991;DHT22;6055;52.522;13.446;2023-03-01T03:45:50;0.50;99.90
11991;DHT22;6055;52.522;13.446;2023-03-01T03:48:17;0.50;99.90
11991;DHT22;6055;52.522;13.446;2023-03-01T03:50:54;0.50;99.90
11991;DHT22;6055;52.522;13.446;2023-03-01T03:53:21;0.50;99.90
11991;DHT22;6055;52.522;13.446;2023-03-01T03:55:47;0.50;99.90
11991;DHT22;6055;52.522;13.446;2023-03-01T03:58:15;0.50;99.90
11991;DHT22;6055;52.522;13.446;2023-03-01T04:00:43;0.60;99.90
11991;DHT22;6055;52.522;13.446;2023-03-01T04:03:11;0.60;99.90
11991;DHT22;6055;52.522;13.446;2023-03-01T04:05:38;0.60;99.90
11991;DHT22;6055;52.522;13.446;2023-03-01T04:08:05;0.50;99.90
11991;DHT22;6055;52.522;13.446;2023-03-01T04:10:39;0.50;99.90
11991;DHT22;6055;52.522;13.446;2023-03-01T04:13:06;0.50;99.90
11991;DHT22;6055;52.522;13.446;2023-03-01T04:15:32;0.50;99.90
11991;DHT22;6055;52.522;13.446;2023-03-01T04:17:58;0.50;99.90
11991;DHT22;6055;52.522;13.446;2023-03-01T04:20:27;0.50;99.90
11991;DHT22;6055;52.522;13.446;2023-03-01T04:22:59;0.50;99.90
11991;DHT22;6055;52.522;13.446;2023-03-01T04:25:25;0.50;99.90
11991;DHT22;6055;52.522;13.446;2023-03-01T04:27:51;0.50;99.90
11991;DHT22;6055;52.522;13.446;2023-03-01T04:30:17;0.40;99.90
11991;DHT22;6055;52.522;13.446;2023-03-01T04:32:42;0.40;99.90
11991;DHT22;6055;52.522;13.446;2023-03-01T04:35:08;0.40;99.90
11991;DHT22;6055;52.522;13.446;2023-03-01T04:37:34;0.40;99.90
11991;DHT22;6055;52.522;13.446;2023-03-01T04:40:02;0.30;99.90
11991;DHT22;6055;52.522;13.446;2023-03-01T04:42:40;0.30;99.90
11991;DHT22;6055;52.522;13.446;2023-03-01T04:45:06;0.30;99.90
11991;DHT22;6055;52.522;13.446;2023-03-01T04:47:41;0.40;99.90
11991;DHT22;6055;52.522;13.446;2023-03-01T04:50:08;0.40;99.90
11991;DHT22;6055;52.522;13.446;2023-03-01T04:52:34;0.40;99.90
11991;DHT22;6055;52.522;13.446;2023-03-01T04:55:00;0.40;99.90
11991;DHT22;6055;52.522;13.446;2023-03-01T04:57:26;0.40;99.90
11991;DHT22;6055;52.522;13.446;2023-03-01T04:59:51;0.40;99.90
11991;DHT22;6055;52.522;13.446;2023-03-01T05:02:17;0.40;99.90
11991;DHT22;6055;52.522;13.446;2023-03-01T05:04:42;0.40;99.90
11991;DHT22;6055;52.522;13.446;2023-03-01T05:07:08;0.40;99.90
11991;DHT22;6055;52.522;13.446;2023-03-01T05:09:33;0.40;99.90
11991;DHT22;6055;52.522;13.446;2023-03-01T05:11:59;0.40;99.90
11991;DHT22;6055;52.522;13.446;2023-03-01T05:14:24;0.40;99.90
11991;DHT22;6055;52.522;13.446;2023-03-01T05:16:50;0.40;99.90
11991;DHT22;6055;52.522;13.446;2023-03-01T05:19:15;0.40;99.90
11991;DHT22;6055;52.522;13.446;2023-03-01T05:21:42;0.30;99.90
11991;DHT22;6055;52.522;13.446;2023-03-01T05:24:28;0.30;99.90
11991;DHT22;6055;52.522;13.446;2023-03-01T05:26:54;0.30;99.90
11991;DHT22;6055;52.522;13.446;2023-03-01T05:29:23;0.30;99.90
11991;DHT22;6055;52.522;13.446;2023-03-01T05:31:56;0.20;99.90
11991;DHT22;6055;52.522;13.446;2023-03-01T05:34:28;0.20;99.90
11991;DHT22;6055;52.522;13.446;2023-03-01T05:36:54;0.20;99.90
11991;DHT22;6055;52.522;13.446;2023-03-01T05:39:22;0.20;99.90
11991;DHT22;6055;52.522;13.446;2023-03-01T05:41:52;0.20;99.90
11991;DHT22;6055;52.522;13.446;2023-03-01T05:44:18;0.20;99.90
11991;DHT22;6055;52.522;13.446;2023-03-01T05:46:43;0.20;99.90
11991;DHT22;6055;52.522;13.446;2023-03-01T05:49:10;0.20;99.90
11991;DHT22;6055;52.522;13.446;2023-03-01T05:51:36;0.20;99.90
11991;DHT22;6055;52.522;13.446;2023-03-01T05:54:01;0.20;99.90
11991;DHT22;6055;52.522;13.446;2023-03-01T05:56:27;0.20;99.90
11991;DHT22;6055;52.522;13.446;2023-03-01T05:58:52;0.20;99.90
11991;DHT22;6055;52.522;13.446;2023-03-01T06:01:18;0.20;99.90
11991;DHT22;6055;52.522;13.446;2023-03-01T06:03:43;0.20;99.90
11991;DHT22;6055;52.522;13.446;2023-03-01T06:06:09;0.20;99.90
11991;DHT22;6055;52.522;13.446;2023-03-01T06:08:34;0.20;99.90
11991;DHT22;6055;52.522;13.446;2023-03-01T06:10:59;0.30;99.90
11991;DHT22;6055;52.522;13.446;2023-03-01T06:13:25;0.30;99.90
11991;DHT22;6055;52.522;13.446;2023-03-01T06:15:51;0.30;99.90
11991;DHT22;6055;52.522;13.446;2023-03-01T06:18:17;0.30;99.90
11991;DHT22;6055;52.522;13.446;2023-03-01T06:20:42;0.40;99.90
11991;DHT22;6055;52.522;13.446;2023-03-01T06:23:07;0.40;99.90
11991;DHT22;6055;52.522;13.446;2023-03-01T06:25:33;0.40;99.90
11991;DHT22;6055;52.522;13.446;2023-03-01T06:27:59;0.50;99.90
11991;DHT22;6055;52.522;13.446;2023-03-01T06:30:25;0.50;99.90
11991;DHT22;6055;52.522;13.446;2023-03-01T06:32:52;0.50;99.90
11991;DHT22;6055;52.522;13.446;2023-03-01T06:35:18;0.50;99.90
11991;DHT22;6055;52.522;13.446;2023-03-01T06:37:45;0.50;99.90
11991;DHT22;6055;52.522;13.446;2023-03-01T06:40:11;0.60;99.90
11991;DHT22;6055;52.522;13.446;2023-03-01T06:42:40;0.60;99.90
11991;DHT22;6055;52.522;13.446;2023-03-01T06:45:07;0.60;99.90
11991;DHT22;6055;52.522;13.446;2023-03-01T06:47:33;0.60;99.90
11991;DHT22;6055;52.522;13.446;2023-03-01T06:50:00;0.70;99.90
11991;DHT22;6055;52.522;13.446;2023-03-01T06:52:25;0.70;99.90
11991;DHT22;6055;52.522;13.446;2023-03-01T06:54:51;0.70;99.90
11991;DHT22;6055;52.522;13.446;2023-03-01T06:57:17;0.80;99.90
11991;DHT22;6055;52.522;13.446;2023-03-01T06:59:42;0.80;99.90
11991;DHT22;6055;52.522;13.446;2023-03-01T07:02:12;0.80;99.90
11991;DHT22;6055;52.522;13.446;2023-03-01T07:04:38;0.80;99.90
11991;DHT22;6055;52.522;13.446;2023-03-01T07:07:03;0.80;99.90
11991;DHT22;6055;52.522;13.446;2023-03-01T07:09:31;0.90;99.90
11991;DHT22;6055;52.522;13.446;2023-03-01T07:11:57;0.90;99.90
11991;DHT22;6055;52.522;13.446;2023-03-01T07:14:23;1.00;99.90
11991;DHT22;6055;52.522;13.446;2023-03-01T07:16:51;1.00;99.90
11991;DHT22;6055;52.522;13.446;2023-03-01T07:23:02;1.00;99.90
11991;DHT22;6055;52.522;13.446;2023-03-01T07:28:48;1.10;99.90
11991;DHT22;6055;52.522;13.446;2023-03-01T07:31:14;1.10;99.90
11991;DHT22;6055;52.522;13.446;2023-03-01T07:33:39;1.10;99.90
11991;DHT22;6055;52.522;13.446;2023-03-01T07:36:05;1.20;99.90
11991;DHT22;6055;52.522;13.446;2023-03-01T07:38:31;1.20;99.90
11991;DHT22;6055;52.522;13.446;2023-03-01T07:41:02;1.30;99.90
11991;DHT22;6055;52.522;13.446;2023-03-01T07:43:29;1.30;99.90
11991;DHT22;6055;52.522;13.446;2023-03-01T07:45:58;1.30;99.90
11991;DHT22;6055;52.522;13.446;2023-03-01T07:48:24;1.30;99.90
11991;DHT22;6055;52.522;13.446;2023-03-01T07:50:49;1.30;99.90
11991;DHT22;6055;52.522;13.446;2023-03-01T07:53:15;1.30;99.90
11991;DHT22;6055;52.522;13.446;2023-03-01T07:55:40;1.40;99.90
11991;DHT22;6055;52.522;13.446;2023-03-01T07:58:06;1.40;99.90
11991;DHT22;6055;52.522;13.446;2023-03-01T08:00:31;1.50;99.90
11991;DHT22;6055;52.522;13.446;2023-03-01T08:03:01;1.50;99.90
11991;DHT22;6055;52.522;13.446;2023-03-01T08:05:27;1.60;99.90
11991;DHT22;6055;52.522;13.446;2023-03-01T08:07:52;1.60;99.90
11991;DHT22;6055;52.522;13.446;2023-03-01T08:10:18;1.60;99.90
11991;DHT22;6055;52.522;13.446;2023-03-01T08:12:44;1.70;99.90
11991;DHT22;6055;52.522;13.446;2023-03-01T08:15:10;1.80;99.90
11991;DHT22;6055;52.522;13.446;2023-03-01T08:17:35;1.80;99.90
11991;DHT22;6055;52.522;13.446;2023-03-01T08:20:04;1.80;99.90
11991;DHT22;6055;52.522;13.446;2023-03-01T08:22:32;1.90;99.90
11991;DHT22;6055;52.522;13.446;2023-03-01T08:24:57;1.90;99.90
11991;DHT22;6055;52.522;13.446;2023-03-01T08:27:23;2.00;99.90
11991;DHT22;6055;52.522;13.446;2023-03-01T08:29:48;2.00;99.90
11991;DHT22;6055;52.522;13.446;2023-03-01T08:32:14;2.10;99.90
11991;DHT22;6055;52.522;13.446;2023-03-01T08:34:39;2.10;99.90
11991;DHT22;6055;52.522;13.446;2023-03-01T08:37:08;2.20;99.90
11991;DHT22;6055;52.522;13.446;2023-03-01T08:39:35;2.20;99.90
11991;DHT22;6055;52.522;13.446;2023-03-01T08:42:02;2.30;99.90
11991;DHT22;6055;52.522;13.446;2023-03-01T08:44:35;2.40;99.90
11991;DHT22;6055;52.522;13.446;2023-03-01T08:47:01;2.40;99.90
11991;DHT22;6055;52.522;13.446;2023-03-01T08:49:30;2.40;99.90
11991;DHT22;6055;52.522;13.446;2023-03-01T08:51:57;2.50;99.90
11991;DHT22;6055;52.522;13.446;2023-03-01T08:54:25;2.50;99.90
11991;DHT22;6055;52.522;13.446;2023-03-01T08:56:51;2.60;99.90
11991;DHT22;6055;52.522;13.446;2023-03-01T08:59:17;2.60;99.90
11991;DHT22;6055;52.522;13.446;2023-03-01T09:01:43;2.70;99.90
11991;DHT22;6055;52.522;13.446;2023-03-01T09:04:10;2.70;99.90
11991;DHT22;6055;52.522;13.446;2023-03-01T09:06:36;2.70;99.90
11991;DHT22;6055;52.522;13.446;2023-03-01T09:09:03;2.80;99.90
11991;DHT22;6055;52.522;13.446;2023-03-01T09:11:29;2.80;99.90
11991;DHT22;6055;52.522;13.446;2023-03-01T09:13:55;2.90;99.90
11991;DHT22;6055;52.522;13.446;2023-03-01T09:16:41;2.90;99.90
11991;DHT22;6055;52.522;13.446;2023-03-01T09:19:07;3.00;99.90
11991;DHT22;6055;52.522;13.446;2023-03-01T09:21:32;3.00;99.90
11991;DHT22;6055;52.522;13.446;2023-03-01T09:23:58;3.00;99.90
11991;DHT22;6055;52.522;13.446;2023-03-01T09:26:24;3.10;99.90
11991;DHT22;6055;52.522;13.446;2023-03-01T09:28:53;3.10;99.90
11991;DHT22;6055;52.522;13.446;2023-03-01T09:31:19;3.20;99.90
11991;DHT22;6055;52.522;13.446;2023-03-01T09:33:47;3.20;99.90
11991;DHT22;6055;52.522;13.446;2023-03-01T09:36:17;3.30;99.90
11991;DHT22;6055;52.522;13.446;2023-03-01T09:38:43;3.30;99.90
11991;DHT22;6055;52.522;13.446;2023-03-01T09:43:56;3.40;99.90
11991;DHT22;6055;52.522;13.446;2023-03-01T09:46:25;3.40;99.90
11991;DHT22;6055;52.522;13.446;2023-03-01T09:49:00;3.40;99.90
11991;DHT22;6055;52.522;13.446;2023-03-01T09:51:30;3.50;99.90
11991;DHT22;6055;52.522;13.446;2023-03-01T09:53:57;3.60;99.90
11991;DHT22;6055;52.522;13.446;2023-03-01T10:01:51;3.70;99.80
11991;DHT22;6055;52.522;13.446;2023-03-01T10:04:27;3.80;99.90
11991;DHT22;6055;52.522;13.446;2023-03-01T10:07:22;3.90;99.70
11991;DHT22;6055;52.522;13.446;2023-03-01T10:09:54;3.90;99.30
11991;DHT22;6055;52.522;13.446;2023-03-01T10:12:24;4.00;99.20
11991;DHT22;6055;52.522;13.446;2023-03-01T10:15:00;4.10;98.20
11991;DHT22;6055;52.522;13.446;2023-03-01T10:17:47;4.20;98.00
11991;DHT22;6055;52.522;13.446;2023-03-01T10:23:04;4.20;97.40
11991;DHT22;6055;52.522;13.446;2023-03-01T10:25:47;4.30;97.50
11991;DHT22;6055;52.522;13.446;2023-03-01T10:28:25;4.30;97.50
11991;DHT22;6055;52.522;13.446;2023-03-01T10:30:51;4.30;97.30
11991;DHT22;6055;52.522;13.446;2023-03-01T10:33:35;4.20;97.50
11991;DHT22;6055;52.522;13.446;2023-03-01T10:36:05;4.20;97.80
11991;DHT22;6055;52.522;13.446;2023-03-01T10:38:46;4.30;97.50
11991;DHT22;6055;52.522;13.446;2023-03-01T10:41:12;4.30;97.60
11991;DHT22;6055;52.522;13.446;2023-03-01T10:43:54;4.30;97.00
11991;DHT22;6055;52.522;13.446;2023-03-01T10:46:34;4.30;96.80
11991;DHT22;6055;52.522;13.446;2023-03-01T10:49:07;4.40;96.10
11991;DHT22;6055;52.522;13.446;2023-03-01T10:51:38;4.40;96.30
11991;DHT22;6055;52.522;13.446;2023-03-01T10:54:06;4.50;95.60
11991;DHT22;6055;52.522;13.446;2023-03-01T10:57:10;4.50;95.20
11991;DHT22;6055;52.522;13.446;2023-03-01T11:00:01;4.50;95.30
11991;DHT22;6055;52.522;13.446;2023-03-01T11:02:30;4.60;95.30
11991;DHT22;6055;52.522;13.446;2023-03-01T11:05:00;4.60;95.00
11991;DHT22;6055;52.522;13.446;2023-03-01T11:07:27;4.70;95.00
11991;DHT22;6055;52.522;13.446;2023-03-01T11:09:53;4.70;94.30
11991;DHT22;6055;52.522;13.446;2023-03-01T11:12:19;4.80;93.80
11991;DHT22;6055;52.522;13.446;2023-03-01T11:14:54;4.70;93.60
11991;DHT22;6055;52.522;13.446;2023-03-01T11:17:24;4.80;93.70
11991;DHT22;6055;52.522;13.446;2023-03-01T11:20:13;4.90;92.70
11991;DHT22;6055;52.522;13.446;2023-03-01T11:22:56;5.00;93.00
11991;DHT22;6055;52.522;13.446;2023-03-01T11:25:29;5.10;93.00
11991;DHT22;6055;52.522;13.446;2023-03-01T11:27:58;5.20;92.20
11991;DHT22;6055;52.522;13.446;2023-03-01T11:30:35;5.30;91.90
11991;DHT22;6055;52.522;13.446;2023-03-01T11:33:18;5.50;91.70
11991;DHT22;6055;52.522;13.446;2023-03-01T11:35:55;5.80;91.80
11991;DHT22;6055;52.522;13.446;2023-03-01T11:38:25;6.40;91.40
11991;DHT22;6055;52.522;13.446;2023-03-01T11:41:16;7.40;87.80
11991;DHT22;6055;52.522;13.446;2023-03-01T11:44:03;8.90;80.80
11991;DHT22;6055;52.522;13.446;2023-03-01T11:46:39;10.70;76.80
11991;DHT22;6055;52.522;13.446;2023-03-01T11:52:07;13.90;62.60
11991;DHT22;6055;52.522;13.446;2023-03-01T12:05:58;16.00;50.50
11991;DHT22;6055;52.522;13.446;2023-03-01T12:08:54;16.40;46.30
11991;DHT22;6055;52.522;13.446;2023-03-01T12:17:09;16.90;43.20
11991;DHT22;6055;52.522;13.446;2023-03-01T12:31:29;16.50;40.50
11991;DHT22;6055;52.522;13.446;2023-03-01T12:37:25;16.10;40.20
11991;DHT22;6055;52.522;13.446;2023-03-01T12:43:20;16.60;39.00
11991;DHT22;6055;52.522;13.446;2023-03-01T12:48:49;16.40;37.50
11991;DHT22;6055;52.522;13.446;2023-03-01T12:51:21;16.20;37.40
11991;DHT22;6055;52.522;13.446;2023-03-01T12:53:50;15.80;35.80
11991;DHT22;6055;52.522;13.446;2023-03-01T12:56:22;15.40;34.70
11991;DHT22;6055;52.522;13.446;2023-03-01T12:59:06;15.20;36.10
11991;DHT22;6055;52.522;13.446;2023-03-01T13:01:59;15.50;36.70
11991;DHT22;6055;52.522;13.446;2023-03-01T13:07:21;15.20;37.90
11991;DHT22;6055;52.522;13.446;2023-03-01T13:12:44;15.00;38.20
11991;DHT22;6055;52.522;13.446;2023-03-01T13:17:52;14.90;39.90
11991;DHT22;6055;52.522;13.446;2023-03-01T13:20:20;15.00;39.40
11991;DHT22;6055;52.522;13.446;2023-03-01T13:22:47;15.30;38.70
11991;DHT22;6055;52.522;13.446;2023-03-01T13:25:19;15.20;38.60
11991;DHT22;6055;52.522;13.446;2023-03-01T13:27:46;14.50;38.30
11991;DHT22;6055;52.522;13.446;2023-03-01T13:33:43;14.10;39.40
11991;DHT22;6055;52.522;13.446;2023-03-01T13:36:09;14.10;40.60
11991;DHT22;6055;52.522;13.446;2023-03-01T13:38:54;13.90;40.70
11991;DHT22;6055;52.522;13.446;2023-03-01T13:46:51;13.60;42.50
11991;DHT22;6055;52.522;13.446;2023-03-01T13:49:19;13.70;42.30
11991;DHT22;6055;52.522;13.446;2023-03-01T13:51:47;13.90;42.70
11991;DHT22;6055;52.522;13.446;2023-03-01T13:54:15;14.00;42.70
11991;DHT22;6055;52.522;13.446;2023-03-01T13:56:41;13.90;42.50
11991;DHT22;6055;52.522;13.446;2023-03-01T13:59:17;13.80;42.50
11991;DHT22;6055;52.522;13.446;2023-03-01T14:01:43;13.70;41.90
11991;DHT22;6055;52.522;13.446;2023-03-01T14:06:48;13.60;42.40
11991;DHT22;6055;52.522;13.446;2023-03-01T14:09:26;13.80;43.40
11991;DHT22;6055;52.522;13.446;2023-03-01T14:12:05;13.80;41.50
11991;DHT22;6055;52.522;13.446;2023-03-01T14:14:42;13.90;41.20
11991;DHT22;6055;52.522;13.446;2023-03-01T14:20:08;13.80;42.20
11991;DHT22;6055;52.522;13.446;2023-03-01T14:22:35;14.10;42.70
11991;DHT22;6055;52.522;13.446;2023-03-01T14:25:16;13.90;42.70
11991;DHT22;6055;52.522;13.446;2023-03-01T14:27:42;13.90;43.30
11991;DHT22;6055;52.522;13.446;2023-03-01T14:30:20;14.30;44.30
11991;DHT22;6055;52.522;13.446;2023-03-01T14:32:54;14.70;44.70
11991;DHT22;6055;52.522;13.446;2023-03-01T14:35:23;15.10;44.30
11991;DHT22;6055;52.522;13.446;2023-03-01T14:37:48;15.30;44.80
11991;DHT22;6055;52.522;13.446;2023-03-01T14:40:33;15.60;43.60
11991;DHT22;6055;52.522;13.446;2023-03-01T14:43:04;15.30;44.20
11991;DHT22;6055;52.522;13.446;2023-03-01T14:45:33;15.20;44.60
11991;DHT22;6055;52.522;13.446;2023-03-01T14:48:01;15.00;45.50
11991;DHT22;6055;52.522;13.446;2023-03-01T14:50:32;14.80;45.00
11991;DHT22;6055;52.522;13.446;2023-03-01T14:53:02;14.60;45.70
11991;DHT22;6055;52.522;13.446;2023-03-01T14:55:40;14.50;45.90
11991;DHT22;6055;52.522;13.446;2023-03-01T14:58:12;14.40;46.10
11991;DHT22;6055;52.522;13.446;2023-03-01T15:00:39;14.20;46.60
11991;DHT22;6055;52.522;13.446;2023-03-01T15:03:13;14.00;46.90
11991;DHT22;6055;52.522;13.446;2023-03-01T15:05:41;14.00;46.70
11991;DHT22;6055;52.522;13.446;2023-03-01T15:08:24;13.90;47.40
11991;DHT22;6055;52.522;13.446;2023-03-01T15:11:27;13.20;47.10
11991;DHT22;6055;52.522;13.446;2023-03-01T15:13:50;13.00;48.30
11991;DHT22;6055;52.522;13.446;2023-03-01T15:16:19;12.60;48.90
11991;DHT22;6055;52.522;13.446;2023-03-01T15:18:52;12.30;49.20
11991;DHT22;6055;52.522;13.446;2023-03-01T15:21:22;12.10;50.10
11991;DHT22;6055;52.522;13.446;2023-03-01T15:24:02;11.70;50.60
11991;DHT22;6055;52.522;13.446;2023-03-01T15:26:31;11.40;51.40
11991;DHT22;6055;52.522;13.446;2023-03-01T15:28:59;11.20;52.10
11991;DHT22;6055;52.522;13.446;2023-03-01T15:31:34;11.10;52.30
11991;DHT22;6055;52.522;13.446;2023-03-01T15:34:09;11.00;52.90
11991;DHT22;6055;52.522;13.446;2023-03-01T15:36:44;10.90;53.30
11991;DHT22;6055;52.522;13.446;2023-03-01T15:39:33;10.80;53.30
11991;DHT22;6055;52.522;13.446;2023-03-01T15:42:03;10.60;53.70
11991;DHT22;6055;52.522;13.446;2023-03-01T15:44:33;10.50;53.50
11991;DHT22;6055;52.522;13.446;2023-03-01T15:46:59;10.30;53.80
11991;DHT22;6055;52.522;13.446;2023-03-01T15:49:45;10.30;53.90
11991;DHT22;6055;52.522;13.446;2023-03-01T15:52:17;10.30;54.70
11991;DHT22;6055;52.522;13.446;2023-03-01T15:54:44;10.30;54.90
11991;DHT22;6055;52.522;13.446;2023-03-01T15:57:14;10.20;54.80
11991;DHT22;6055;52.522;13.446;2023-03-01T15:59:40;10.10;55.20
11991;DHT22;6055;52.522;13.446;2023-03-01T16:02:13;10.10;55.80
11991;DHT22;6055;52.522;13.446;2023-03-01T16:04:47;10.00;55.70
11991;DHT22;6055;52.522;13.446;2023-03-01T16:07:16;10.00;56.00
11991;DHT22;6055;52.522;13.446;2023-03-01T16:09:42;9.80;56.60
11991;DHT22;6055;52.522;13.446;2023-03-01T16:12:13;9.70;56.30
11991;DHT22;6055;52.522;13.446;2023-03-01T16:14:39;9.70;56.70
11991;DHT22;6055;52.522;13.446;2023-03-01T16:17:05;9.60;56.80
11991;DHT22;6055;52.522;13.446;2023-03-01T16:19:30;9.50;57.20
11991;DHT22;6055;52.522;13.446;2023-03-01T16:21:56;9.30;57.70
11991;DHT22;6055;52.522;13.446;2023-03-01T16:24:21;9.20;58.30
11991;DHT22;6055;52.522;13.446;2023-03-01T16:26:47;9.00;58.30
11991;DHT22;6055;52.522;13.446;2023-03-01T16:29:12;8.90;58.60
11991;DHT22;6055;52.522;13.446;2023-03-01T16:31:38;8.80;59.10
11991;DHT22;6055;52.522;13.446;2023-03-01T16:34:03;8.60;59.40
11991;DHT22;6055;52.522;13.446;2023-03-01T16:36:29;8.50;59.90
11991;DHT22;6055;52.522;13.446;2023-03-01T16:38:56;8.40;60.60
11991;DHT22;6055;52.522;13.446;2023-03-01T16:41:23;8.30;61.00
11991;DHT22;6055;52.522;13.446;2023-03-01T16:43:49;8.10;61.50
11991;DHT22;6055;52.522;13.446;2023-03-01T16:46:25;7.90;62.10
11991;DHT22;6055;52.522;13.446;2023-03-01T16:48:50;7.70;63.00
11991;DHT22;6055;52.522;13.446;2023-03-01T16:51:16;7.60;63.70
11991;DHT22;6055;52.522;13.446;2023-03-01T16:53:42;7.50;64.50
11991;DHT22;6055;52.522;13.446;2023-03-01T16:56:09;7.40;65.10
11991;DHT22;6055;52.522;13.446;2023-03-01T16:58:36;7.20;65.70
11991;DHT22;6055;52.522;13.446;2023-03-01T17:01:16;7.10;66.50
11991;DHT22;6055;52.522;13.446;2023-03-01T17:03:42;7.00;67.00
11991;DHT22;6055;52.522;13.446;2023-03-01T17:06:10;7.00;68.10
11991;DHT22;6055;52.522;13.446;2023-03-01T17:08:37;6.90;68.40
11991;DHT22;6055;52.522;13.446;2023-03-01T17:11:08;6.80;69.00
11991;DHT22;6055;52.522;13.446;2023-03-01T17:13:34;6.70;70.40
11991;DHT22;6055;52.522;13.446;2023-03-01T17:16:02;6.60;70.80
11991;DHT22;6055;52.522;13.446;2023-03-01T17:18:28;6.50;71.60
11991;DHT22;6055;52.522;13.446;2023-03-01T17:20:54;6.50;72.70
11991;DHT22;6055;52.522;13.446;2023-03-01T17:23:19;6.40;72.80
11991;DHT22;6055;52.522;13.446;2023-03-01T17:25:45;6.40;73.60
11991;DHT22;6055;52.522;13.446;2023-03-01T17:28:12;6.40;74.40
11991;DHT22;6055;52.522;13.446;2023-03-01T17:30:41;6.30;75.40
11991;DHT22;6055;52.522;13.446;2023-03-01T17:33:10;6.30;75.80